createdAt,value
2023-08-29T00:00:27.541Z,99521.02
2023-08-29T00:02:58.240Z,99534.65
2023-08-29T00:05:30.766Z,99563.67
2023-08-29T00:08:01.395Z,99573.20
2023-08-29T00:10:31.879Z,99567.33
2023-08-29T00:13:02.343Z,99567.15
2023-08-29T00:15:33.900Z,99574.69
2023-08-29T00:18:05.036Z,99569.16
2023-08-29T00:20:36.090Z,99566.39
2023-08-29T00:23:10.374Z,99561.37
2023-08-29T00:25:40.954Z,99571.90
2023-08-29T00:28:13.043Z,99588.30
2023-08-29T00:30:45.194Z,99603.66
2023-08-29T00:33:15.952Z,99602.81
2023-08-29T00:35:48.347Z,99606.41
2023-08-29T00:38:19.592Z,99601.05
2023-08-29T00:40:50.095Z,99588.74
2023-08-29T00:43:20.626Z,99579.02
2023-08-29T00:45:51.628Z,99572.63
2023-08-29T00:48:22.591Z,99564.30
2023-08-29T00:50:53.158Z,99548.10
2023-08-29T00:53:24.897Z,99527.73
2023-08-29T00:55:53.969Z,99541.91
2023-08-29T00:58:25.040Z,99561.84
2023-08-29T01:00:56.177Z,99581.23
2023-08-29T01:03:27.001Z,99590.90
2023-08-29T01:05:58.638Z,99578.83
2023-08-29T01:08:29.256Z,99573.82
2023-08-29T01:11:07.217Z,99569.84
2023-08-29T01:13:44.219Z,99563.10
2023-08-29T01:16:18.779Z,99580.69
2023-08-29T01:18:52.248Z,99567.52
2023-08-29T01:21:47.393Z,99563.54
2023-08-29T01:24:28.486Z,99546.44
2023-08-29T01:27:00.076Z,99524.02
2023-08-29T01:29:30.991Z,99494.12
2023-08-29T01:32:04.308Z,99504.28
2023-08-29T01:34:35.065Z,99497.56
2023-08-29T01:37:05.766Z,99486.33
2023-08-29T01:39:40.184Z,99467.01
2023-08-29T01:42:10.948Z,99443.36
2023-08-29T01:44:41.446Z,99414.19
2023-08-29T01:47:11.971Z,99395.40
2023-08-29T01:49:44.450Z,99351.27
2023-08-29T01:52:14.993Z,99288.48
2023-08-29T01:54:45.876Z,99242.64
2023-08-29T01:57:18.299Z,99226.65
2023-08-29T01:59:49.935Z,99221.33
2023-08-29T02:02:21.634Z,99200.16
2023-08-29T02:04:52.085Z,99197.10
2023-08-29T02:07:23.678Z,99188.19
2023-08-29T02:09:54.107Z,99176.17
2023-08-29T02:12:24.662Z,99171.04
2023-08-29T02:14:55.104Z,99162.10
2023-08-29T02:17:25.578Z,99159.21
2023-08-29T02:19:56.258Z,99160.64
2023-08-29T02:22:26.806Z,99171.56
2023-08-29T02:24:57.644Z,99202.82
2023-08-29T02:27:29.414Z,99180.95
2023-08-29T02:29:59.938Z,99175.06
2023-08-29T02:32:30.675Z,99181.77
2023-08-29T02:35:01.153Z,99191.77
2023-08-29T02:37:36.109Z,99207.09
2023-08-29T02:40:10.013Z,99208.41
2023-08-29T02:42:40.782Z,99198.95
2023-08-29T02:45:12.688Z,99195.95
2023-08-29T02:47:43.188Z,99196.27
2023-08-29T02:50:14.037Z,99202.96
2023-08-29T02:52:44.522Z,99194.77
2023-08-29T02:55:15.084Z,99185.44
2023-08-29T02:57:45.596Z,99188.70
2023-08-29T03:00:17.946Z,99203.52
2023-08-29T03:02:48.825Z,99216.11
2023-08-29T03:05:19.608Z,99215.95
2023-08-29T03:07:50.530Z,99227.50
2023-08-29T03:10:21.065Z,99235.60
2023-08-29T03:12:53.803Z,99247.32
2023-08-29T03:15:25.185Z,99258.16
2023-08-29T03:17:55.763Z,99258.80
2023-08-29T03:20:27.141Z,99248.24
2023-08-29T03:22:57.709Z,99236.50
2023-08-29T03:25:29.064Z,99219.95
2023-08-29T03:27:59.619Z,99195.64
2023-08-29T03:30:30.458Z,99187.86
2023-08-29T03:33:01.025Z,99174.59
2023-08-29T03:35:32.003Z,99159.94
2023-08-29T03:38:02.507Z,99152.14
2023-08-29T03:40:33.021Z,99141.09
2023-08-29T03:43:03.772Z,99148.16
2023-08-29T03:45:34.254Z,99165.92
2023-08-29T03:48:12.759Z,99164.55
2023-08-29T03:50:46.509Z,99158.16
2023-08-29T03:53:17.021Z,99165.95
2023-08-29T03:55:47.977Z,99182.69
2023-08-29T03:58:18.646Z,99175.67
2023-08-29T04:00:51.200Z,99144.30
2023-08-29T04:03:21.978Z,99129.98
2023-08-29T04:05:52.842Z,99141.52
2023-08-29T04:08:23.374Z,99164.27
2023-08-29T04:10:53.842Z,99191.73
2023-08-29T04:13:24.364Z,99198.31
2023-08-29T04:15:54.919Z,99204.88
2023-08-29T04:18:25.521Z,99220.40
2023-08-29T04:20:56.011Z,99234.36
2023-08-29T04:23:26.544Z,99240.86
2023-08-29T04:26:02.394Z,99234.45
2023-08-29T04:28:32.978Z,99227.16
2023-08-29T04:31:12.490Z,99218.86
2023-08-29T04:33:43.818Z,99219.36
2023-08-29T04:36:16.365Z,99216.76
2023-08-29T04:38:48.822Z,99214.30
2023-08-29T04:41:19.304Z,99223.39
2023-08-29T04:43:49.825Z,99235.27
2023-08-29T04:46:20.277Z,99243.19
2023-08-29T04:48:50.816Z,99254.73
2023-08-29T04:51:22.335Z,99259.73
2023-08-29T04:53:52.872Z,99280.42
2023-08-29T04:56:23.336Z,99315.63
2023-08-29T04:58:55.207Z,99338.58
2023-08-29T05:01:27.091Z,99351.18
2023-08-29T05:03:57.739Z,99363.09
2023-08-29T05:06:28.441Z,99346.38
2023-08-29T05:08:58.981Z,99304.64
2023-08-29T05:11:29.474Z,99291.67
2023-08-29T05:13:59.941Z,99297.56
2023-08-29T05:16:30.662Z,99293.29
2023-08-29T05:19:02.097Z,99270.91
2023-08-29T05:21:32.567Z,99242.85
2023-08-29T05:24:04.322Z,99238.27
2023-08-29T05:26:34.843Z,99243.04
2023-08-29T05:29:05.350Z,99216.27
2023-08-29T05:31:35.922Z,99190.88
2023-08-29T05:34:06.598Z,99182.70
2023-08-29T05:36:37.973Z,99173.34
2023-08-29T05:39:08.673Z,99159.08
2023-08-29T05:41:39.173Z,99150.89
2023-08-29T05:44:10.028Z,99160.90
2023-08-29T05:46:40.599Z,99152.81
2023-08-29T05:49:11.393Z,99134.04
2023-08-29T05:51:41.854Z,99127.33
2023-08-29T05:54:12.331Z,99130.09
2023-08-29T05:56:42.847Z,99140.41
2023-08-29T05:59:13.610Z,99147.45
2023-08-29T06:01:44.512Z,99164.67
2023-08-29T06:04:15.094Z,99172.04
2023-08-29T06:06:45.582Z,99180.27
2023-08-29T06:09:16.065Z,99205.95
2023-08-29T06:11:47.182Z,99217.67
2023-08-29T06:14:17.746Z,99224.38
2023-08-29T06:16:48.284Z,99225.55
2023-08-29T06:19:18.829Z,99234.29
2023-08-29T06:21:49.302Z,99234.60
2023-08-29T06:24:19.841Z,99243.55
2023-08-29T06:26:50.506Z,99246.30
2023-08-29T06:29:21.053Z,99260.61
2023-08-29T06:31:51.537Z,99263.86
2023-08-29T06:34:21.991Z,99260.73
2023-08-29T06:36:52.445Z,99261.56
2023-08-29T06:39:22.987Z,99249.98
2023-08-29T06:41:53.524Z,99248.28
2023-08-29T06:44:24.034Z,99251.17
2023-08-29T06:46:54.516Z,99251.70
2023-08-29T06:49:25.044Z,99257.20
2023-08-29T06:51:55.536Z,99260.46
2023-08-29T06:54:26.124Z,99260.44
2023-08-29T06:56:56.630Z,99253.86
2023-08-29T06:59:27.087Z,99255.05
2023-08-29T07:01:57.569Z,99255.21
2023-08-29T07:04:28.065Z,99247.79
2023-08-29T07:06:58.594Z,99242.64
2023-08-29T07:09:29.092Z,99233.52
2023-08-29T07:12:00.187Z,99238.55
2023-08-29T07:14:31.398Z,99255.98
2023-08-29T07:17:09.416Z,99259.79
2023-08-29T07:19:41.372Z,99260.46
2023-08-29T07:22:23.648Z,99262.54
2023-08-29T07:24:55.565Z,99247.20
2023-08-29T07:27:26.081Z,99244.59
2023-08-29T07:29:56.542Z,99238.88
2023-08-29T07:32:27.108Z,99245.23
2023-08-29T07:34:59.736Z,99251.20
2023-08-29T07:37:30.316Z,99255.80
2023-08-29T07:40:00.880Z,99267.52
2023-08-29T07:42:31.384Z,99261.27
2023-08-29T07:45:02.144Z,99259.53
2023-08-29T07:47:32.664Z,99262.42
2023-08-29T07:50:04.243Z,99263.94
2023-08-29T07:52:34.760Z,99265.28
2023-08-29T07:55:05.516Z,99266.44
2023-08-29T07:57:35.975Z,99274.31
2023-08-29T08:00:10.956Z,99282.89
2023-08-29T08:02:41.864Z,99278.88
2023-08-29T08:05:14.071Z,99269.85
2023-08-29T08:07:46.339Z,99272.75
2023-08-29T08:10:18.974Z,99280.85
2023-08-29T08:12:50.396Z,99287.38
2023-08-29T08:15:21.792Z,99297.01
2023-08-29T08:17:52.548Z,99293.52
2023-08-29T08:20:23.316Z,99293.85
2023-08-29T08:22:53.887Z,99293.99
2023-08-29T08:25:24.550Z,99297.96
2023-08-29T08:27:55.084Z,99304.65
2023-08-29T08:30:25.678Z,99298.88
2023-08-29T08:32:56.193Z,99287.41
2023-08-29T08:35:27.220Z,99286.16
2023-08-29T08:37:57.696Z,99293.38
2023-08-29T08:40:29.730Z,99298.20
2023-08-29T08:43:00.930Z,99296.44
2023-08-29T08:45:31.971Z,99298.98
2023-08-29T08:48:03.810Z,99297.39
2023-08-29T08:50:34.923Z,99293.58
2023-08-29T08:53:06.201Z,99294.57
2023-08-29T08:55:36.795Z,99295.04
2023-08-29T08:58:08.249Z,99283.44
2023-08-29T09:00:38.883Z,99277.05
2023-08-29T09:03:10.041Z,99272.73
2023-08-29T09:05:40.556Z,99271.00
2023-08-29T09:08:11.219Z,99269.95
2023-08-29T09:10:42.736Z,99267.86
2023-08-29T09:13:19.058Z,99254.73
2023-08-29T09:15:50.508Z,99255.58
2023-08-29T09:18:30.025Z,99248.84
2023-08-29T09:21:01.318Z,99246.26
2023-08-29T09:23:38.812Z,99253.70
2023-08-29T09:26:12.626Z,99268.17
2023-08-29T09:28:43.436Z,99278.15
2023-08-29T09:31:15.618Z,99275.84
2023-08-29T09:33:48.830Z,99276.84
2023-08-29T09:36:21.975Z,99270.39
2023-08-29T09:38:52.898Z,99262.07
2023-08-29T09:41:23.358Z,99259.60
2023-08-29T09:43:53.823Z,99265.13
2023-08-29T09:46:31.368Z,99265.50
2023-08-29T09:49:01.857Z,99271.02
2023-08-29T09:51:35.596Z,99272.04
2023-08-29T09:54:10.476Z,99269.77
2023-08-29T09:56:44.182Z,99272.60
2023-08-29T09:59:19.308Z,99279.55
2023-08-29T10:01:53.092Z,99277.01
2023-08-29T10:04:25.993Z,99270.98
2023-08-29T10:06:59.879Z,99275.04
2023-08-29T10:09:32.452Z,99281.09
2023-08-29T10:12:04.871Z,99279.90
2023-08-29T10:14:36.412Z,99270.06
2023-08-29T10:17:17.405Z,99266.39
2023-08-29T10:19:53.110Z,99268.42
2023-08-29T10:22:25.896Z,99268.48
2023-08-29T10:24:57.807Z,99278.49
2023-08-29T10:27:28.312Z,99287.14
2023-08-29T10:29:58.963Z,99284.39
2023-08-29T10:32:32.154Z,99284.55
2023-08-29T10:35:04.083Z,99279.55
2023-08-29T10:37:34.758Z,99277.94
2023-08-29T10:40:16.507Z,99276.87
2023-08-29T10:42:58.489Z,99285.83
2023-08-29T10:45:48.083Z,99294.92
2023-08-29T10:48:21.958Z,99297.84
2023-08-29T10:51:13.190Z,99291.95
2023-08-29T10:53:49.619Z,99278.42
2023-08-29T10:56:22.222Z,99278.20
2023-08-29T10:58:52.822Z,99283.39
2023-08-29T11:01:34.683Z,99287.41
2023-08-29T11:04:14.035Z,99289.42
2023-08-29T11:06:58.107Z,99296.93
2023-08-29T11:09:29.591Z,99298.91
2023-08-29T11:12:10.403Z,99281.30
2023-08-29T11:14:57.750Z,99273.00
2023-08-29T11:17:28.936Z,99269.56
2023-08-29T11:20:02.951Z,99274.89
2023-08-29T11:22:33.561Z,99282.24
2023-08-29T11:25:04.613Z,99292.23
2023-08-29T11:27:41.732Z,99300.31
2023-08-29T11:30:28.025Z,99296.65
2023-08-29T11:33:06.822Z,99301.48
2023-08-29T11:35:35.809Z,99309.92
2023-08-29T11:38:07.497Z,99313.72
2023-08-29T11:40:50.348Z,99317.32
2023-08-29T11:43:50.540Z,99313.68
2023-08-29T11:46:24.216Z,99313.66
2023-08-29T11:48:55.056Z,99316.76
2023-08-29T11:51:25.598Z,99315.91
2023-08-29T11:53:56.061Z,99319.77
2023-08-29T11:56:29.724Z,99319.08
2023-08-29T11:59:02.037Z,99313.83
2023-08-29T12:01:39.476Z,99313.27
2023-08-29T12:04:10.993Z,99315.88
2023-08-29T12:06:41.637Z,99314.30
2023-08-29T12:09:25.195Z,99312.23
2023-08-29T12:11:57.023Z,99311.71
2023-08-29T12:14:28.523Z,99310.70
2023-08-29T12:16:59.818Z,99318.65
2023-08-29T12:19:37.462Z,99324.70
2023-08-29T12:22:08.418Z,99323.86
2023-08-29T12:24:39.189Z,99324.94
2023-08-29T12:27:09.942Z,99321.53
2023-08-29T12:29:40.496Z,99322.06
2023-08-29T12:32:10.983Z,99320.02
2023-08-29T12:34:42.606Z,99306.70
2023-08-29T12:37:13.692Z,99305.48
2023-08-29T12:39:46.989Z,99309.59
2023-08-29T12:42:17.832Z,99303.46
2023-08-29T12:44:48.341Z,99300.33
2023-08-29T12:47:18.936Z,99291.14
2023-08-29T12:49:50.099Z,99289.91
2023-08-29T12:52:21.432Z,99297.50
2023-08-29T12:54:52.544Z,99304.77
2023-08-29T12:57:23.798Z,99305.27
2023-08-29T12:59:54.257Z,99304.07
2023-08-29T13:02:24.931Z,99303.19
2023-08-29T13:04:55.483Z,99296.60
2023-08-29T13:07:26.001Z,99291.74
2023-08-29T13:09:57.227Z,99281.55
2023-08-29T13:12:27.717Z,99275.69
2023-08-29T13:14:58.237Z,99275.02
2023-08-29T13:17:28.789Z,99269.34
2023-08-29T13:19:59.323Z,99265.55
2023-08-29T13:22:29.950Z,99269.02
2023-08-29T13:25:00.491Z,99268.52
2023-08-29T13:27:31.189Z,99272.33
2023-08-29T13:30:01.734Z,99269.21
2023-08-29T13:32:35.140Z,99265.39
2023-08-29T13:35:06.916Z,99263.48
2023-08-29T13:37:35.915Z,99264.73
2023-08-29T13:40:08.242Z,99271.08
2023-08-29T13:42:38.772Z,99276.65
2023-08-29T13:45:11.554Z,99282.94
2023-08-29T13:47:42.164Z,99295.43
2023-08-29T13:50:12.908Z,99309.27
2023-08-29T13:52:43.429Z,99319.42
2023-08-29T13:55:14.201Z,99321.13
2023-08-29T13:57:44.805Z,99331.62
2023-08-29T14:00:17.377Z,99334.86
2023-08-29T14:02:49.060Z,99334.84
2023-08-29T14:05:19.781Z,99338.06
2023-08-29T14:07:51.425Z,99334.21
2023-08-29T14:10:22.237Z,99332.10
2023-08-29T14:12:53.427Z,99329.32
2023-08-29T14:15:24.505Z,99324.13
2023-08-29T14:17:55.022Z,99329.64
2023-08-29T14:20:25.915Z,99330.29
2023-08-29T14:23:01.998Z,99333.85
2023-08-29T14:25:33.367Z,99340.39
2023-08-29T14:28:04.367Z,99335.69
2023-08-29T14:30:34.998Z,99332.52
2023-08-29T14:33:06.448Z,99331.98
2023-08-29T14:35:37.060Z,99327.50
2023-08-29T14:38:08.050Z,99320.79
2023-08-29T14:40:39.195Z,99318.02
2023-08-29T14:43:10.356Z,99309.87
2023-08-29T14:45:44.858Z,99310.67
2023-08-29T14:48:15.434Z,99312.19
2023-08-29T14:50:48.266Z,99313.92
2023-08-29T14:53:19.308Z,99312.89
2023-08-29T14:55:54.386Z,99312.54
2023-08-29T14:58:25.801Z,99312.16
2023-08-29T15:00:57.635Z,99308.29
2023-08-29T15:03:28.481Z,99300.27
2023-08-29T15:06:00.164Z,99295.57
2023-08-29T15:08:30.672Z,99292.77
2023-08-29T15:11:01.401Z,99294.29
2023-08-29T15:13:31.877Z,99296.51
2023-08-29T15:16:07.137Z,99294.52
2023-08-29T15:18:37.814Z,99295.21
2023-08-29T15:21:08.324Z,99292.60
2023-08-29T15:23:38.771Z,99292.91
2023-08-29T15:26:09.221Z,99295.84
2023-08-29T15:28:39.706Z,99294.10
2023-08-29T15:31:10.145Z,99293.95
2023-08-29T15:33:41.089Z,99285.94
2023-08-29T15:36:11.562Z,99280.52
2023-08-29T15:38:42.086Z,99280.79
2023-08-29T15:41:12.994Z,99278.45
2023-08-29T15:43:43.494Z,99276.50
2023-08-29T15:46:13.974Z,99282.83
2023-08-29T15:48:44.550Z,99281.16
2023-08-29T15:51:17.076Z,99281.04
2023-08-29T15:53:47.560Z,99273.80
2023-08-29T15:56:18.100Z,99270.84
2023-08-29T15:58:48.824Z,99268.73
2023-08-29T16:01:19.536Z,99263.69
2023-08-29T16:03:51.528Z,99265.05
2023-08-29T16:06:22.512Z,99267.27
2023-08-29T16:08:52.951Z,99266.03
2023-08-29T16:11:23.974Z,99276.39
2023-08-29T16:13:54.418Z,99282.44
2023-08-29T16:16:25.130Z,99278.80
2023-08-29T16:18:55.773Z,99279.84
2023-08-29T16:21:26.260Z,99277.89
2023-08-29T16:23:56.942Z,99275.60
2023-08-29T16:26:27.425Z,99280.75
2023-08-29T16:28:57.885Z,99284.89
2023-08-29T16:31:28.413Z,99291.11
2023-08-29T16:34:00.971Z,99286.45
2023-08-29T16:36:32.975Z,99288.39
2023-08-29T16:39:04.483Z,99294.49
2023-08-29T16:41:35.007Z,99302.47
2023-08-29T16:44:06.004Z,99305.27
2023-08-29T16:46:36.501Z,99301.83
2023-08-29T16:49:07.041Z,99304.39
2023-08-29T16:51:37.484Z,99311.61
2023-08-29T16:54:08.713Z,99316.46
2023-08-29T16:56:39.171Z,99312.88
2023-08-29T16:59:09.658Z,99304.95
2023-08-29T17:01:40.189Z,99307.91
2023-08-29T17:04:12.965Z,99315.70
2023-08-29T17:06:43.482Z,99306.55
2023-08-29T17:09:13.991Z,99301.21
2023-08-29T17:11:46.115Z,99310.40
2023-08-29T17:14:16.614Z,99317.17
2023-08-29T17:16:47.149Z,99320.45
2023-08-29T17:19:17.613Z,99316.50
2023-08-29T17:21:49.329Z,99324.25
2023-08-29T17:24:18.426Z,99331.48
2023-08-29T17:26:48.898Z,99334.41
2023-08-29T17:29:19.801Z,99333.84
2023-08-29T17:31:50.400Z,99325.54
2023-08-29T17:34:21.788Z,99320.40
2023-08-29T17:36:52.374Z,99319.78
2023-08-29T17:39:22.958Z,99317.75
2023-08-29T17:41:53.499Z,99314.24
2023-08-29T17:44:24.139Z,99319.21
2023-08-29T17:46:54.747Z,99330.02
2023-08-29T17:49:25.282Z,99336.30
2023-08-29T17:51:55.812Z,99340.85
2023-08-29T17:54:26.643Z,99338.10
2023-08-29T17:56:57.207Z,99333.09
2023-08-29T17:59:28.184Z,99332.86
2023-08-29T18:01:58.672Z,99331.78
2023-08-29T18:04:29.156Z,99335.71
2023-08-29T18:06:59.644Z,99340.71
2023-08-29T18:09:30.319Z,99342.13
2023-08-29T18:12:00.795Z,99349.39
2023-08-29T18:14:31.338Z,99349.23
2023-08-29T18:17:02.017Z,99347.15
2023-08-29T18:19:32.568Z,99343.71
2023-08-29T18:22:03.037Z,99335.77
2023-08-29T18:24:33.534Z,99333.35
2023-08-29T18:27:04.018Z,99336.47
2023-08-29T18:29:34.536Z,99342.20
2023-08-29T18:32:06.140Z,99346.20
2023-08-29T18:34:37.777Z,99340.01
2023-08-29T18:37:09.765Z,99348.13
2023-08-29T18:39:40.587Z,99349.16
2023-08-29T18:42:11.124Z,99351.58
2023-08-29T18:44:41.577Z,99359.18
2023-08-29T18:47:12.095Z,99358.67
2023-08-29T18:49:42.537Z,99355.73
2023-08-29T18:52:13.630Z,99347.95
2023-08-29T18:54:44.212Z,99347.21
2023-08-29T18:57:14.747Z,99353.92
2023-08-29T18:59:45.264Z,99354.78
2023-08-29T19:02:15.705Z,99354.27
2023-08-29T19:04:46.521Z,99357.02
2023-08-29T19:07:17.122Z,99359.09
2023-08-29T19:09:47.704Z,99361.17
2023-08-29T19:12:18.426Z,99354.62
2023-08-29T19:14:48.990Z,99354.45
2023-08-29T19:17:19.804Z,99349.60
2023-08-29T19:19:50.332Z,99341.97
2023-08-29T19:22:20.821Z,99336.45
2023-08-29T19:24:51.927Z,99337.30
2023-08-29T19:27:25.278Z,99340.58
2023-08-29T19:29:57.623Z,99334.89
2023-08-29T19:32:28.297Z,99327.97
2023-08-29T19:34:58.918Z,99327.45
2023-08-29T19:37:30.049Z,99319.52
2023-08-29T19:40:00.598Z,99317.45
2023-08-29T19:42:31.216Z,99311.77
2023-08-29T19:45:01.727Z,99305.89
2023-08-29T19:47:32.311Z,99295.36
2023-08-29T19:50:03.086Z,99282.90
2023-08-29T19:52:33.620Z,99281.88
2023-08-29T19:55:06.133Z,99285.57
2023-08-29T19:57:37.693Z,99287.52
2023-08-29T20:00:10.773Z,99282.16
2023-08-29T20:02:47.569Z,99271.28
2023-08-29T20:05:18.360Z,99261.45
2023-08-29T20:07:48.816Z,99250.58
2023-08-29T20:10:19.497Z,99242.81
2023-08-29T20:12:50.329Z,99242.31
2023-08-29T20:15:20.786Z,99242.19
2023-08-29T20:17:51.399Z,99241.02
2023-08-29T20:20:21.990Z,99243.15
2023-08-29T20:22:52.512Z,99243.18
2023-08-29T20:25:22.972Z,99238.39
2023-08-29T20:27:53.436Z,99243.77
2023-08-29T20:30:25.195Z,99246.52
2023-08-29T20:32:54.264Z,99252.62
2023-08-29T20:35:24.849Z,99265.95
2023-08-29T20:37:58.419Z,99272.21
2023-08-29T20:40:29.665Z,99286.21
2023-08-29T20:43:00.230Z,99285.35
2023-08-29T20:45:30.801Z,99283.09
2023-08-29T20:48:01.376Z,99285.35
2023-08-29T20:50:32.173Z,99282.23
2023-08-29T20:53:02.681Z,99286.16
2023-08-29T20:55:33.440Z,99293.88
2023-08-29T20:58:03.965Z,99301.11
2023-08-29T21:00:36.764Z,99305.79
2023-08-29T21:03:08.048Z,99314.42
2023-08-29T21:05:38.953Z,99324.11
2023-08-29T21:08:09.754Z,99328.80
2023-08-29T21:10:43.207Z,99330.34
2023-08-29T21:13:15.101Z,99328.27
2023-08-29T21:15:45.974Z,99327.23
2023-08-29T21:18:18.007Z,99328.96
2023-08-29T21:20:56.603Z,99328.28
2023-08-29T21:23:27.431Z,99331.94
2023-08-29T21:25:58.124Z,99327.11
2023-08-29T21:28:29.460Z,99319.70
2023-08-29T21:31:00.041Z,99320.40
2023-08-29T21:33:30.531Z,99322.11
2023-08-29T21:36:00.995Z,99324.89
2023-08-29T21:38:33.037Z,99321.97
2023-08-29T21:41:06.756Z,99325.27
2023-08-29T21:43:37.246Z,99327.51
2023-08-29T21:46:10.935Z,99323.92
2023-08-29T21:48:41.446Z,99324.27
2023-08-29T21:51:19.231Z,99328.80
2023-08-29T21:53:49.705Z,99333.83
2023-08-29T21:56:20.493Z,99336.61
2023-08-29T21:58:50.964Z,99335.76
2023-08-29T22:01:22.514Z,99334.20
2023-08-29T22:03:53.630Z,99337.65
2023-08-29T22:06:24.159Z,99334.04
2023-08-29T22:08:54.654Z,99326.27
2023-08-29T22:11:25.415Z,99324.36
2023-08-29T22:13:55.906Z,99324.70
2023-08-29T22:16:26.431Z,99311.59
2023-08-29T22:18:56.938Z,99301.21
2023-08-29T22:21:27.501Z,99312.45
2023-08-29T22:23:57.953Z,99316.09
2023-08-29T22:26:28.411Z,99307.98
2023-08-29T22:28:58.866Z,99307.52
2023-08-29T22:31:29.354Z,99307.56
2023-08-29T22:33:59.846Z,99308.46
2023-08-29T22:36:30.366Z,99311.74
2023-08-29T22:39:00.830Z,99312.45
2023-08-29T22:41:34.784Z,99311.75
2023-08-29T22:44:09.136Z,99312.95
2023-08-29T22:46:39.592Z,99310.68
2023-08-29T22:49:10.082Z,99303.45
2023-08-29T22:51:40.537Z,99294.85
2023-08-29T22:54:11.697Z,99294.25
2023-08-29T22:56:42.234Z,99289.98
2023-08-29T22:59:13.573Z,99296.73
2023-08-29T23:01:45.093Z,99302.08
2023-08-29T23:04:15.567Z,99302.08
2023-08-29T23:06:46.596Z,99307.77
2023-08-29T23:09:17.024Z,99304.48
2023-08-29T23:11:47.529Z,99302.06
2023-08-29T23:14:25.199Z,99293.08
2023-08-29T23:16:56.198Z,99284.92
2023-08-29T23:19:27.548Z,99278.66
2023-08-29T23:21:58.411Z,99281.04
2023-08-29T23:24:28.857Z,99288.60
2023-08-29T23:26:59.367Z,99292.89
2023-08-29T23:29:29.804Z,99302.89
2023-08-29T23:32:00.321Z,99299.77
2023-08-29T23:34:32.249Z,99303.02
2023-08-29T23:37:02.809Z,99302.51
2023-08-29T23:39:33.328Z,99300.27
2023-08-29T23:42:03.821Z,99299.38
2023-08-29T23:44:35.218Z,99295.38
2023-08-29T23:47:06.229Z,99290.88
2023-08-29T23:49:36.686Z,99287.06
2023-08-29T23:52:07.474Z,99285.34
2023-08-29T23:54:37.971Z,99281.38
2023-08-29T23:57:08.457Z,99276.20
2023-08-29T23:59:38.961Z,99270.70
